sensor_id;sensor_type;location;lat;lon;timestamp;P1;durP1;ratioP1;P2;durP2;ratioP2
3070;SDS011;1546;47.208;9.038;2022-08-25T00:01:41;6.30;;;2.67;;
3070;SDS011;1546;47.208;9.038;2022-08-25T00:04:29;4.63;;;3.30;;
3070;SDS011;1546;47.208;9.038;2022-08-25T00:07:15;5.90;;;2.60;;
3070;SDS011;1546;47.208;9.038;2022-08-25T00:10:00;4.40;;;2.80;;
3070;SDS011;1546;47.208;9.038;2022-08-25T00:12:46;5.63;;;3.17;;
3070;SDS011;1546;47.208;9.038;2022-08-25T00:15:31;4.10;;;2.73;;
3070;SDS011;1546;47.208;9.038;2022-08-25T00:18:19;4.53;;;2.90;;
3070;SDS011;1546;47.208;9.038;2022-08-25T00:21:04;4.00;;;2.20;;
3070;SDS011;1546;47.208;9.038;2022-08-25T00:23:50;5.70;;;3.20;;
3070;SDS011;1546;47.208;9.038;2022-08-25T00:26:37;5.83;;;3.47;;
3070;SDS011;1546;47.208;9.038;2022-08-25T00:29:24;4.30;;;3.00;;
3070;SDS011;1546;47.208;9.038;2022-08-25T00:32:10;4.93;;;2.88;;
3070;SDS011;1546;47.208;9.038;2022-08-25T00:34:58;4.90;;;2.70;;
3070;SDS011;1546;47.208;9.038;2022-08-25T00:37:43;6.23;;;3.00;;
3070;SDS011;1546;47.208;9.038;2022-08-25T00:40:29;4.77;;;2.80;;
3070;SDS011;1546;47.208;9.038;2022-08-25T00:43:15;8.90;;;2.80;;
3070;SDS011;1546;47.208;9.038;2022-08-25T00:46:02;4.23;;;2.83;;
3070;SDS011;1546;47.208;9.038;2022-08-25T00:48:50;3.53;;;2.40;;
3070;SDS011;1546;47.208;9.038;2022-08-25T00:51:41;5.93;;;2.60;;
3070;SDS011;1546;47.208;9.038;2022-08-25T00:54:29;4.50;;;2.70;;
3070;SDS011;1546;47.208;9.038;2022-08-25T00:57:18;4.37;;;2.70;;
3070;SDS011;1546;47.208;9.038;2022-08-25T01:00:10;4.97;;;3.10;;
3070;SDS011;1546;47.208;9.038;2022-08-25T01:02:59;4.20;;;2.60;;
3070;SDS011;1546;47.208;9.038;2022-08-25T01:05:45;4.17;;;2.77;;
3070;SDS011;1546;47.208;9.038;2022-08-25T01:08:32;4.13;;;2.40;;
3070;SDS011;1546;47.208;9.038;2022-08-25T01:11:18;4.65;;;2.90;;
3070;SDS011;1546;47.208;9.038;2022-08-25T01:14:03;4.23;;;3.07;;
3070;SDS011;1546;47.208;9.038;2022-08-25T01:16:49;7.13;;;3.00;;
3070;SDS011;1546;47.208;9.038;2022-08-25T01:19:35;4.80;;;2.67;;
3070;SDS011;1546;47.208;9.038;2022-08-25T01:22:22;4.95;;;2.90;;
3070;SDS011;1546;47.208;9.038;2022-08-25T01:25:13;4.53;;;3.30;;
3070;SDS011;1546;47.208;9.038;2022-08-25T01:28:07;6.07;;;3.00;;
3070;SDS011;1546;47.208;9.038;2022-08-25T01:30:53;8.38;;;3.60;;
3070;SDS011;1546;47.208;9.038;2022-08-25T01:33:39;4.10;;;2.90;;
3070;SDS011;1546;47.208;9.038;2022-08-25T01:36:26;4.50;;;3.30;;
3070;SDS011;1546;47.208;9.038;2022-08-25T01:39:13;4.70;;;3.22;;
3070;SDS011;1546;47.208;9.038;2022-08-25T01:42:07;4.37;;;3.07;;
3070;SDS011;1546;47.208;9.038;2022-08-25T01:45:02;8.10;;;3.10;;
3070;SDS011;1546;47.208;9.038;2022-08-25T01:47:48;4.00;;;2.87;;
3070;SDS011;1546;47.208;9.038;2022-08-25T01:50:33;4.75;;;3.03;;
3070;SDS011;1546;47.208;9.038;2022-08-25T01:53:21;4.10;;;3.00;;
3070;SDS011;1546;47.208;9.038;2022-08-25T01:56:12;6.67;;;3.00;;
3070;SDS011;1546;47.208;9.038;2022-08-25T01:58:59;5.38;;;3.50;;
3070;SDS011;1546;47.208;9.038;2022-08-25T02:01:45;4.50;;;2.78;;
3070;SDS011;1546;47.208;9.038;2022-08-25T02:04:31;6.35;;;2.50;;
3070;SDS011;1546;47.208;9.038;2022-08-25T02:07:17;4.22;;;2.60;;
3070;SDS011;1546;47.208;9.038;2022-08-25T02:10:04;5.15;;;3.40;;
3070;SDS011;1546;47.208;9.038;2022-08-25T02:12:52;5.35;;;3.00;;
3070;SDS011;1546;47.208;9.038;2022-08-25T02:15:39;6.07;;;2.95;;
3070;SDS011;1546;47.208;9.038;2022-08-25T02:18:26;6.05;;;3.42;;
3070;SDS011;1546;47.208;9.038;2022-08-25T02:21:12;8.13;;;3.20;;
3070;SDS011;1546;47.208;9.038;2022-08-25T02:23:58;4.65;;;3.08;;
3070;SDS011;1546;47.208;9.038;2022-08-25T02:26:44;4.38;;;3.03;;
3070;SDS011;1546;47.208;9.038;2022-08-25T02:29:31;4.72;;;2.92;;
3070;SDS011;1546;47.208;9.038;2022-08-25T02:32:17;4.88;;;3.20;;
3070;SDS011;1546;47.208;9.038;2022-08-25T02:35:03;6.32;;;3.42;;
3070;SDS011;1546;47.208;9.038;2022-08-25T02:37:50;4.55;;;2.53;;
3070;SDS011;1546;47.208;9.038;2022-08-25T02:40:36;6.15;;;3.20;;
3070;SDS011;1546;47.208;9.038;2022-08-25T02:43:21;4.32;;;3.15;;
3070;SDS011;1546;47.208;9.038;2022-08-25T02:46:10;3.95;;;2.60;;
3070;SDS011;1546;47.208;9.038;2022-08-25T02:48:56;4.53;;;3.33;;
3070;SDS011;1546;47.208;9.038;2022-08-25T02:51:42;5.20;;;3.72;;
3070;SDS011;1546;47.208;9.038;2022-08-25T02:54:28;5.93;;;3.22;;
3070;SDS011;1546;47.208;9.038;2022-08-25T02:57:13;4.35;;;3.00;;
3070;SDS011;1546;47.208;9.038;2022-08-25T03:00:00;4.85;;;3.58;;
3070;SDS011;1546;47.208;9.038;2022-08-25T03:02:49;4.68;;;3.35;;
3070;SDS011;1546;47.208;9.038;2022-08-25T03:05:35;5.32;;;3.25;;
3070;SDS011;1546;47.208;9.038;2022-08-25T03:08:21;6.95;;;3.78;;
3070;SDS011;1546;47.208;9.038;2022-08-25T03:11:06;6.65;;;3.35;;
3070;SDS011;1546;47.208;9.038;2022-08-25T03:13:52;4.00;;;2.97;;
3070;SDS011;1546;47.208;9.038;2022-08-25T03:16:39;4.53;;;3.20;;
3070;SDS011;1546;47.208;9.038;2022-08-25T03:19:28;5.45;;;3.30;;
3070;SDS011;1546;47.208;9.038;2022-08-25T03:22:13;6.07;;;3.70;;
3070;SDS011;1546;47.208;9.038;2022-08-25T03:24:59;8.23;;;3.55;;
3070;SDS011;1546;47.208;9.038;2022-08-25T03:27:58;5.80;;;2.97;;
3070;SDS011;1546;47.208;9.038;2022-08-25T03:30:45;5.25;;;3.10;;
3070;SDS011;1546;47.208;9.038;2022-08-25T03:33:30;6.20;;;3.90;;
3070;SDS011;1546;47.208;9.038;2022-08-25T03:36:17;4.93;;;3.38;;
3070;SDS011;1546;47.208;9.038;2022-08-25T03:39:04;4.75;;;3.40;;
3070;SDS011;1546;47.208;9.038;2022-08-25T03:41:51;4.78;;;3.22;;
3070;SDS011;1546;47.208;9.038;2022-08-25T03:44:37;4.30;;;3.60;;
3070;SDS011;1546;47.208;9.038;2022-08-25T03:47:23;6.57;;;3.80;;
3070;SDS011;1546;47.208;9.038;2022-08-25T03:50:09;4.38;;;3.38;;
3070;SDS011;1546;47.208;9.038;2022-08-25T03:52:57;5.15;;;3.30;;
3070;SDS011;1546;47.208;9.038;2022-08-25T03:55:43;6.15;;;3.13;;
3070;SDS011;1546;47.208;9.038;2022-08-25T03:58:28;7.00;;;3.22;;
3070;SDS011;1546;47.208;9.038;2022-08-25T04:01:14;4.82;;;3.13;;
3070;SDS011;1546;47.208;9.038;2022-08-25T04:04:00;5.43;;;3.30;;
3070;SDS011;1546;47.208;9.038;2022-08-25T04:06:45;4.72;;;3.58;;
3070;SDS011;1546;47.208;9.038;2022-08-25T04:09:32;4.72;;;3.47;;
3070;SDS011;1546;47.208;9.038;2022-08-25T04:12:18;5.68;;;3.38;;
3070;SDS011;1546;47.208;9.038;2022-08-25T04:15:04;6.93;;;3.80;;
3070;SDS011;1546;47.208;9.038;2022-08-25T04:17:51;4.30;;;3.28;;
3070;SDS011;1546;47.208;9.038;2022-08-25T04:20:37;4.78;;;3.38;;
3070;SDS011;1546;47.208;9.038;2022-08-25T04:23:23;5.07;;;3.28;;
3070;SDS011;1546;47.208;9.038;2022-08-25T04:26:10;4.93;;;3.75;;
3070;SDS011;1546;47.208;9.038;2022-08-25T04:28:58;6.20;;;3.67;;
3070;SDS011;1546;47.208;9.038;2022-08-25T04:31:45;4.93;;;3.47;;
3070;SDS011;1546;47.208;9.038;2022-08-25T04:34:32;5.75;;;3.78;;
3070;SDS011;1546;47.208;9.038;2022-08-25T04:37:18;5.13;;;3.85;;
3070;SDS011;1546;47.208;9.038;2022-08-25T04:40:03;4.72;;;3.35;;
3070;SDS011;1546;47.208;9.038;2022-08-25T04:42:51;6.22;;;3.28;;
3070;SDS011;1546;47.208;9.038;2022-08-25T04:45:37;6.15;;;3.25;;
3070;SDS011;1546;47.208;9.038;2022-08-25T04:48:23;5.65;;;4.00;;
3070;SDS011;1546;47.208;9.038;2022-08-25T04:51:09;5.15;;;3.10;;
3070;SDS011;1546;47.208;9.038;2022-08-25T04:53:57;6.53;;;4.13;;
3070;SDS011;1546;47.208;9.038;2022-08-25T04:56:44;5.78;;;3.95;;
3070;SDS011;1546;47.208;9.038;2022-08-25T04:59:32;4.68;;;3.47;;
3070;SDS011;1546;47.208;9.038;2022-08-25T05:02:17;4.90;;;3.30;;
3070;SDS011;1546;47.208;9.038;2022-08-25T05:05:03;6.75;;;3.60;;
3070;SDS011;1546;47.208;9.038;2022-08-25T05:07:49;7.55;;;3.70;;
3070;SDS011;1546;47.208;9.038;2022-08-25T05:10:37;5.53;;;4.10;;
3070;SDS011;1546;47.208;9.038;2022-08-25T05:13:24;7.28;;;4.15;;
3070;SDS011;1546;47.208;9.038;2022-08-25T05:16:11;4.60;;;3.30;;
3070;SDS011;1546;47.208;9.038;2022-08-25T05:18:57;7.72;;;4.85;;
3070;SDS011;1546;47.208;9.038;2022-08-25T05:21:43;5.30;;;3.55;;
3070;SDS011;1546;47.208;9.038;2022-08-25T05:24:28;5.97;;;3.70;;
3070;SDS011;1546;47.208;9.038;2022-08-25T05:27:14;5.00;;;3.17;;
3070;SDS011;1546;47.208;9.038;2022-08-25T05:30:00;5.40;;;4.03;;
3070;SDS011;1546;47.208;9.038;2022-08-25T05:32:46;5.05;;;3.53;;
3070;SDS011;1546;47.208;9.038;2022-08-25T05:35:32;7.90;;;4.10;;
3070;SDS011;1546;47.208;9.038;2022-08-25T05:38:18;4.40;;;3.28;;
3070;SDS011;1546;47.208;9.038;2022-08-25T05:41:04;4.90;;;3.80;;
3070;SDS011;1546;47.208;9.038;2022-08-25T05:43:52;8.18;;;3.45;;
3070;SDS011;1546;47.208;9.038;2022-08-25T05:46:38;5.82;;;3.13;;
3070;SDS011;1546;47.208;9.038;2022-08-25T05:49:25;6.65;;;4.00;;
3070;SDS011;1546;47.208;9.038;2022-08-25T05:52:11;6.40;;;3.20;;
3070;SDS011;1546;47.208;9.038;2022-08-25T05:54:56;6.60;;;3.78;;
3070;SDS011;1546;47.208;9.038;2022-08-25T05:57:42;5.07;;;3.08;;
3070;SDS011;1546;47.208;9.038;2022-08-25T06:00:28;5.28;;;3.90;;
3070;SDS011;1546;47.208;9.038;2022-08-25T06:03:13;6.05;;;3.42;;
3070;SDS011;1546;47.208;9.038;2022-08-25T06:06:05;7.00;;;3.53;;
3070;SDS011;1546;47.208;9.038;2022-08-25T06:08:50;5.22;;;3.58;;
3070;SDS011;1546;47.208;9.038;2022-08-25T06:11:37;4.97;;;3.30;;
3070;SDS011;1546;47.208;9.038;2022-08-25T06:14:23;5.15;;;3.53;;
3070;SDS011;1546;47.208;9.038;2022-08-25T06:17:10;4.50;;;3.15;;
3070;SDS011;1546;47.208;9.038;2022-08-25T06:19:55;4.30;;;3.00;;
3070;SDS011;1546;47.208;9.038;2022-08-25T06:22:42;5.78;;;3.03;;
3070;SDS011;1546;47.208;9.038;2022-08-25T06:25:28;5.78;;;3.30;;
3070;SDS011;1546;47.208;9.038;2022-08-25T06:28:16;5.20;;;3.20;;
3070;SDS011;1546;47.208;9.038;2022-08-25T06:31:02;5.80;;;3.58;;
3070;SDS011;1546;47.208;9.038;2022-08-25T06:33:48;5.22;;;3.60;;
3070;SDS011;1546;47.208;9.038;2022-08-25T06:36:35;5.27;;;4.00;;
3070;SDS011;1546;47.208;9.038;2022-08-25T06:39:22;6.22;;;3.80;;
3070;SDS011;1546;47.208;9.038;2022-08-25T06:42:07;7.80;;;3.70;;
3070;SDS011;1546;47.208;9.038;2022-08-25T06:44:53;4.60;;;3.20;;
3070;SDS011;1546;47.208;9.038;2022-08-25T06:47:39;4.97;;;4.00;;
3070;SDS011;1546;47.208;9.038;2022-08-25T06:50:24;4.80;;;3.23;;
3070;SDS011;1546;47.208;9.038;2022-08-25T06:53:10;7.23;;;3.70;;
3070;SDS011;1546;47.208;9.038;2022-08-25T06:55:57;5.10;;;3.40;;
3070;SDS011;1546;47.208;9.038;2022-08-25T06:58:43;5.27;;;3.47;;
3070;SDS011;1546;47.208;9.038;2022-08-25T07:01:30;5.50;;;3.57;;
3070;SDS011;1546;47.208;9.038;2022-08-25T07:04:16;4.87;;;4.17;;
3070;SDS011;1546;47.208;9.038;2022-08-25T07:07:02;5.53;;;3.70;;
3070;SDS011;1546;47.208;9.038;2022-08-25T07:09:48;5.10;;;3.70;;
3070;SDS011;1546;47.208;9.038;2022-08-25T07:12:35;5.33;;;3.80;;
3070;SDS011;1546;47.208;9.038;2022-08-25T07:15:20;4.77;;;4.07;;
3070;SDS011;1546;47.208;9.038;2022-08-25T07:18:06;7.37;;;4.00;;
3070;SDS011;1546;47.208;9.038;2022-08-25T07:20:52;6.07;;;4.40;;
3070;SDS011;1546;47.208;9.038;2022-08-25T07:23:39;6.10;;;4.27;;
3070;SDS011;1546;47.208;9.038;2022-08-25T07:26:26;5.80;;;4.47;;
3070;SDS011;1546;47.208;9.038;2022-08-25T07:29:16;5.03;;;4.03;;
3070;SDS011;1546;47.208;9.038;2022-08-25T07:32:03;6.40;;;4.40;;
3070;SDS011;1546;47.208;9.038;2022-08-25T07:34:49;6.63;;;4.43;;
3070;SDS011;1546;47.208;9.038;2022-08-25T07:37:53;5.33;;;4.73;;
3070;SDS011;1546;47.208;9.038;2022-08-25T07:40:40;6.73;;;4.07;;
3070;SDS011;1546;47.208;9.038;2022-08-25T07:43:26;4.60;;;3.20;;
3070;SDS011;1546;47.208;9.038;2022-08-25T07:46:13;7.67;;;4.43;;
3070;SDS011;1546;47.208;9.038;2022-08-25T07:48:58;4.50;;;3.53;;
3070;SDS011;1546;47.208;9.038;2022-08-25T07:51:44;5.27;;;3.87;;
3070;SDS011;1546;47.208;9.038;2022-08-25T07:54:30;6.03;;;3.97;;
3070;SDS011;1546;47.208;9.038;2022-08-25T07:57:16;6.47;;;4.37;;
3070;SDS011;1546;47.208;9.038;2022-08-25T08:00:02;6.70;;;3.73;;
3070;SDS011;1546;47.208;9.038;2022-08-25T08:02:51;9.33;;;4.13;;
3070;SDS011;1546;47.208;9.038;2022-08-25T08:05:38;5.20;;;4.00;;
3070;SDS011;1546;47.208;9.038;2022-08-25T08:08:25;5.90;;;4.13;;
3070;SDS011;1546;47.208;9.038;2022-08-25T08:11:13;5.03;;;3.63;;
3070;SDS011;1546;47.208;9.038;2022-08-25T08:14:00;5.03;;;3.77;;
3070;SDS011;1546;47.208;9.038;2022-08-25T08:16:46;7.77;;;4.20;;
3070;SDS011;1546;47.208;9.038;2022-08-25T08:19:33;5.70;;;4.57;;
3070;SDS011;1546;47.208;9.038;2022-08-25T08:22:19;7.03;;;4.57;;
3070;SDS011;1546;47.208;9.038;2022-08-25T08:25:05;5.80;;;4.50;;
3070;SDS011;1546;47.208;9.038;2022-08-25T08:27:51;4.90;;;3.47;;
3070;SDS011;1546;47.208;9.038;2022-08-25T08:30:37;8.97;;;5.23;;
3070;SDS011;1546;47.208;9.038;2022-08-25T08:33:22;6.90;;;4.50;;
3070;SDS011;1546;47.208;9.038;2022-08-25T08:36:10;7.30;;;4.50;;
3070;SDS011;1546;47.208;9.038;2022-08-25T08:38:56;5.87;;;4.40;;
3070;SDS011;1546;47.208;9.038;2022-08-25T08:41:48;5.90;;;4.23;;
3070;SDS011;1546;47.208;9.038;2022-08-25T08:45:02;6.50;;;4.87;;
3070;SDS011;1546;47.208;9.038;2022-08-25T08:48:10;6.30;;;3.80;;
3070;SDS011;1546;47.208;9.038;2022-08-25T08:51:18;6.57;;;3.70;;
3070;SDS011;1546;47.208;9.038;2022-08-25T08:54:08;5.50;;;3.70;;
3070;SDS011;1546;47.208;9.038;2022-08-25T08:57:02;6.37;;;4.70;;
3070;SDS011;1546;47.208;9.038;2022-08-25T08:59:52;5.93;;;5.33;;
3070;SDS011;1546;47.208;9.038;2022-08-25T09:02:42;6.30;;;4.20;;
3070;SDS011;1546;47.208;9.038;2022-08-25T09:05:45;5.97;;;4.83;;
3070;SDS011;1546;47.208;9.038;2022-08-25T09:08:35;6.90;;;4.87;;
3070;SDS011;1546;47.208;9.038;2022-08-25T09:11:22;10.00;;;5.40;;
3070;SDS011;1546;47.208;9.038;2022-08-25T09:14:18;4.90;;;3.90;;
3070;SDS011;1546;47.208;9.038;2022-08-25T09:17:16;5.73;;;4.10;;
3070;SDS011;1546;47.208;9.038;2022-08-25T09:20:32;4.57;;;3.50;;
3070;SDS011;1546;47.208;9.038;2022-08-25T09:23:31;5.57;;;4.63;;
3070;SDS011;1546;47.208;9.038;2022-08-25T09:26:27;5.70;;;3.83;;
3070;SDS011;1546;47.208;9.038;2022-08-25T09:29:18;5.17;;;3.80;;
3070;SDS011;1546;47.208;9.038;2022-08-25T09:32:07;5.00;;;3.77;;
3070;SDS011;1546;47.208;9.038;2022-08-25T09:34:53;5.70;;;4.30;;
3070;SDS011;1546;47.208;9.038;2022-08-25T09:37:39;6.00;;;3.80;;
3070;SDS011;1546;47.208;9.038;2022-08-25T09:40:27;5.63;;;3.50;;
3070;SDS011;1546;47.208;9.038;2022-08-25T09:43:20;4.40;;;3.40;;
3070;SDS011;1546;47.208;9.038;2022-08-25T09:46:08;4.63;;;3.83;;
3070;SDS011;1546;47.208;9.038;2022-08-25T09:48:57;8.23;;;4.00;;
3070;SDS011;1546;47.208;9.038;2022-08-25T09:51:54;5.23;;;4.33;;
3070;SDS011;1546;47.208;9.038;2022-08-25T09:54:40;5.33;;;4.70;;
3070;SDS011;1546;47.208;9.038;2022-08-25T09:57:28;6.40;;;4.27;;
3070;SDS011;1546;47.208;9.038;2022-08-25T10:00:17;5.43;;;4.40;;
3070;SDS011;1546;47.208;9.038;2022-08-25T10:03:07;8.10;;;4.57;;
3070;SDS011;1546;47.208;9.038;2022-08-25T10:05:57;7.70;;;4.33;;
3070;SDS011;1546;47.208;9.038;2022-08-25T10:08:50;5.53;;;4.37;;
3070;SDS011;1546;47.208;9.038;2022-08-25T10:11:40;5.47;;;4.10;;
3070;SDS011;1546;47.208;9.038;2022-08-25T10:14:32;5.73;;;3.93;;
3070;SDS011;1546;47.208;9.038;2022-08-25T10:17:23;7.13;;;4.53;;
3070;SDS011;1546;47.208;9.038;2022-08-25T10:20:15;7.20;;;4.63;;
3070;SDS011;1546;47.208;9.038;2022-08-25T10:23:08;5.20;;;3.87;;
3070;SDS011;1546;47.208;9.038;2022-08-25T10:25:55;5.63;;;4.70;;
3070;SDS011;1546;47.208;9.038;2022-08-25T10:28:54;6.40;;;4.43;;
3070;SDS011;1546;47.208;9.038;2022-08-25T10:31:51;5.90;;;4.50;;
3070;SDS011;1546;47.208;9.038;2022-08-25T10:34:43;5.10;;;3.80;;
3070;SDS011;1546;47.208;9.038;2022-08-25T10:37:34;6.73;;;4.40;;
3070;SDS011;1546;47.208;9.038;2022-08-25T10:40:27;5.63;;;4.33;;
3070;SDS011;1546;47.208;9.038;2022-08-25T10:43:19;6.83;;;4.30;;
3070;SDS011;1546;47.208;9.038;2022-08-25T10:46:14;5.90;;;5.07;;
3070;SDS011;1546;47.208;9.038;2022-08-25T10:49:06;7.53;;;4.03;;
3070;SDS011;1546;47.208;9.038;2022-08-25T10:51:59;5.63;;;3.87;;
3070;SDS011;1546;47.208;9.038;2022-08-25T10:54:48;5.10;;;4.07;;
3070;SDS011;1546;47.208;9.038;2022-08-25T10:57:43;5.93;;;4.83;;
3070;SDS011;1546;47.208;9.038;2022-08-25T11:00:36;5.10;;;3.57;;
3070;SDS011;1546;47.208;9.038;2022-08-25T11:03:30;9.20;;;4.40;;
3070;SDS011;1546;47.208;9.038;2022-08-25T11:06:30;5.60;;;3.50;;
3070;SDS011;1546;47.208;9.038;2022-08-25T11:09:22;4.10;;;3.00;;
3070;SDS011;1546;47.208;9.038;2022-08-25T11:12:17;6.63;;;3.90;;
3070;SDS011;1546;47.208;9.038;2022-08-25T11:15:07;5.47;;;4.20;;
3070;SDS011;1546;47.208;9.038;2022-08-25T11:17:56;4.00;;;3.00;;
3070;SDS011;1546;47.208;9.038;2022-08-25T11:20:45;6.57;;;3.80;;
3070;SDS011;1546;47.208;9.038;2022-08-25T11:23:38;6.00;;;3.60;;
3070;SDS011;1546;47.208;9.038;2022-08-25T11:26:29;4.73;;;3.27;;
3070;SDS011;1546;47.208;9.038;2022-08-25T11:29:17;5.03;;;3.73;;
3070;SDS011;1546;47.208;9.038;2022-08-25T11:32:06;4.37;;;3.00;;
3070;SDS011;1546;47.208;9.038;2022-08-25T11:34:51;4.60;;;2.93;;
3070;SDS011;1546;47.208;9.038;2022-08-25T11:37:41;6.67;;;3.60;;
3070;SDS011;1546;47.208;9.038;2022-08-25T11:40:40;5.53;;;3.30;;
3070;SDS011;1546;47.208;9.038;2022-08-25T11:43:42;5.30;;;3.00;;
3070;SDS011;1546;47.208;9.038;2022-08-25T11:46:58;6.10;;;3.20;;
3070;SDS011;1546;47.208;9.038;2022-08-25T11:49:57;5.10;;;3.20;;
3070;SDS011;1546;47.208;9.038;2022-08-25T11:52:50;4.80;;;3.00;;
3070;SDS011;1546;47.208;9.038;2022-08-25T11:55:46;5.53;;;3.47;;
3070;SDS011;1546;47.208;9.038;2022-08-25T11:58:39;8.00;;;3.57;;
3070;SDS011;1546;47.208;9.038;2022-08-25T12:04:52;5.20;;;3.43;;
3070;SDS011;1546;47.208;9.038;2022-08-25T12:08:01;4.90;;;3.00;;
3070;SDS011;1546;47.208;9.038;2022-08-25T12:11:07;4.10;;;2.67;;
3070;SDS011;1546;47.208;9.038;2022-08-25T12:13:53;5.17;;;3.43;;
3070;SDS011;1546;47.208;9.038;2022-08-25T12:17:02;4.37;;;3.03;;
3070;SDS011;1546;47.208;9.038;2022-08-25T12:19:54;4.20;;;3.40;;
3070;SDS011;1546;47.208;9.038;2022-08-25T12:22:43;5.83;;;3.37;;
3070;SDS011;1546;47.208;9.038;2022-08-25T12:25:47;6.70;;;4.03;;
3070;SDS011;1546;47.208;9.038;2022-08-25T12:28:39;5.60;;;3.50;;
3070;SDS011;1546;47.208;9.038;2022-08-25T12:31:43;4.70;;;3.10;;
3070;SDS011;1546;47.208;9.038;2022-08-25T12:34:38;6.00;;;3.50;;
3070;SDS011;1546;47.208;9.038;2022-08-25T12:37:34;4.87;;;3.80;;
3070;SDS011;1546;47.208;9.038;2022-08-25T12:40:37;5.40;;;4.20;;
3070;SDS011;1546;47.208;9.038;2022-08-25T12:43:40;9.53;;;3.60;;
3070;SDS011;1546;47.208;9.038;2022-08-25T12:46:31;6.33;;;3.53;;
3070;SDS011;1546;47.208;9.038;2022-08-25T12:49:30;6.00;;;3.97;;
3070;SDS011;1546;47.208;9.038;2022-08-25T12:52:18;5.43;;;3.97;;
3070;SDS011;1546;47.208;9.038;2022-08-25T12:55:06;4.60;;;3.20;;
3070;SDS011;1546;47.208;9.038;2022-08-25T12:57:55;3.67;;;3.03;;
3070;SDS011;1546;47.208;9.038;2022-08-25T13:04:06;5.20;;;3.83;;
3070;SDS011;1546;47.208;9.038;2022-08-25T13:07:19;5.33;;;3.70;;
3070;SDS011;1546;47.208;9.038;2022-08-25T13:10:19;5.50;;;3.07;;
3070;SDS011;1546;47.208;9.038;2022-08-25T13:13:15;4.27;;;2.80;;
3070;SDS011;1546;47.208;9.038;2022-08-25T13:16:16;5.10;;;3.60;;
3070;SDS011;1546;47.208;9.038;2022-08-25T13:19:03;5.30;;;3.50;;
3070;SDS011;1546;47.208;9.038;2022-08-25T13:21:50;4.60;;;3.53;;
3070;SDS011;1546;47.208;9.038;2022-08-25T13:24:38;4.30;;;3.50;;
3070;SDS011;1546;47.208;9.038;2022-08-25T13:27:26;5.27;;;3.50;;
3070;SDS011;1546;47.208;9.038;2022-08-25T13:30:18;5.63;;;3.60;;
3070;SDS011;1546;47.208;9.038;2022-08-25T13:33:16;4.30;;;3.40;;
3070;SDS011;1546;47.208;9.038;2022-08-25T13:36:03;4.90;;;3.07;;
3070;SDS011;1546;47.208;9.038;2022-08-25T13:39:10;5.00;;;3.30;;
3070;SDS011;1546;47.208;9.038;2022-08-25T13:41:58;5.50;;;3.30;;
3070;SDS011;1546;47.208;9.038;2022-08-25T13:44:45;5.77;;;4.10;;
3070;SDS011;1546;47.208;9.038;2022-08-25T13:47:31;4.37;;;3.50;;
3070;SDS011;1546;47.208;9.038;2022-08-25T13:50:30;6.10;;;3.03;;
3070;SDS011;1546;47.208;9.038;2022-08-25T13:53:20;4.90;;;2.67;;
3070;SDS011;1546;47.208;9.038;2022-08-25T13:56:08;5.83;;;3.67;;
3070;SDS011;1546;47.208;9.038;2022-08-25T13:58:54;5.57;;;2.80;;
3070;SDS011;1546;47.208;9.038;2022-08-25T14:01:42;6.80;;;3.30;;
3070;SDS011;1546;47.208;9.038;2022-08-25T14:04:31;5.00;;;3.10;;
3070;SDS011;1546;47.208;9.038;2022-08-25T14:07:30;4.13;;;3.37;;
3070;SDS011;1546;47.208;9.038;2022-08-25T14:10:30;4.57;;;3.10;;
3070;SDS011;1546;47.208;9.038;2022-08-25T14:13:28;4.40;;;3.57;;
3070;SDS011;1546;47.208;9.038;2022-08-25T14:16:17;5.63;;;3.50;;
3070;SDS011;1546;47.208;9.038;2022-08-25T14:19:07;5.10;;;3.40;;
3070;SDS011;1546;47.208;9.038;2022-08-25T14:21:58;4.60;;;3.17;;
3070;SDS011;1546;47.208;9.038;2022-08-25T14:24:46;4.90;;;3.50;;
3070;SDS011;1546;47.208;9.038;2022-08-25T14:27:31;4.50;;;3.07;;
3070;SDS011;1546;47.208;9.038;2022-08-25T14:30:17;5.87;;;3.57;;
3070;SDS011;1546;47.208;9.038;2022-08-25T14:33:02;4.00;;;3.03;;
3070;SDS011;1546;47.208;9.038;2022-08-25T14:35:49;4.13;;;3.13;;
3070;SDS011;1546;47.208;9.038;2022-08-25T14:38:36;4.90;;;2.93;;
3070;SDS011;1546;47.208;9.038;2022-08-25T14:41:24;4.30;;;3.50;;
3070;SDS011;1546;47.208;9.038;2022-08-25T14:44:11;5.10;;;3.00;;
3070;SDS011;1546;47.208;9.038;2022-08-25T14:46:57;6.00;;;3.07;;
3070;SDS011;1546;47.208;9.038;2022-08-25T14:49:45;6.20;;;3.33;;
3070;SDS011;1546;47.208;9.038;2022-08-25T14:52:32;6.40;;;3.30;;
3070;SDS011;1546;47.208;9.038;2022-08-25T14:55:17;5.43;;;3.13;;
3070;SDS011;1546;47.208;9.038;2022-08-25T14:58:04;4.80;;;3.63;;
3070;SDS011;1546;47.208;9.038;2022-08-25T15:00:50;6.70;;;3.57;;
3070;SDS011;1546;47.208;9.038;2022-08-25T15:03:36;4.80;;;3.80;;
3070;SDS011;1546;47.208;9.038;2022-08-25T15:06:23;7.33;;;4.30;;
3070;SDS011;1546;47.208;9.038;2022-08-25T15:09:10;5.23;;;3.63;;
3070;SDS011;1546;47.208;9.038;2022-08-25T15:11:56;5.33;;;3.30;;
3070;SDS011;1546;47.208;9.038;2022-08-25T15:14:43;5.20;;;3.60;;
3070;SDS011;1546;47.208;9.038;2022-08-25T15:17:29;7.53;;;3.80;;
3070;SDS011;1546;47.208;9.038;2022-08-25T15:20:15;5.53;;;3.60;;
3070;SDS011;1546;47.208;9.038;2022-08-25T15:23:00;4.30;;;3.27;;
3070;SDS011;1546;47.208;9.038;2022-08-25T15:25:46;5.43;;;3.47;;
3070;SDS011;1546;47.208;9.038;2022-08-25T15:28:34;5.20;;;3.63;;
3070;SDS011;1546;47.208;9.038;2022-08-25T15:31:21;5.17;;;3.73;;
3070;SDS011;1546;47.208;9.038;2022-08-25T15:34:07;4.60;;;3.77;;
3070;SDS011;1546;47.208;9.038;2022-08-25T15:36:53;5.67;;;3.90;;
3070;SDS011;1546;47.208;9.038;2022-08-25T15:39:39;4.60;;;3.50;;
3070;SDS011;1546;47.208;9.038;2022-08-25T15:42:25;5.00;;;3.30;;
3070;SDS011;1546;47.208;9.038;2022-08-25T15:45:11;7.97;;;3.90;;
3070;SDS011;1546;47.208;9.038;2022-08-25T15:47:59;7.27;;;4.10;;
3070;SDS011;1546;47.208;9.038;2022-08-25T15:50:44;4.50;;;3.50;;
3070;SDS011;1546;47.208;9.038;2022-08-25T15:53:30;5.20;;;3.40;;
3070;SDS011;1546;47.208;9.038;2022-08-25T15:56:18;5.37;;;3.83;;
3070;SDS011;1546;47.208;9.038;2022-08-25T15:59:04;6.53;;;3.90;;
3070;SDS011;1546;47.208;9.038;2022-08-25T16:01:50;6.17;;;3.83;;
3070;SDS011;1546;47.208;9.038;2022-08-25T16:04:38;5.40;;;3.67;;
3070;SDS011;1546;47.208;9.038;2022-08-25T16:07:23;8.60;;;4.17;;
3070;SDS011;1546;47.208;9.038;2022-08-25T16:10:09;5.60;;;3.80;;
3070;SDS011;1546;47.208;9.038;2022-08-25T16:12:54;5.20;;;3.90;;
3070;SDS011;1546;47.208;9.038;2022-08-25T16:15:44;4.60;;;3.10;;
3070;SDS011;1546;47.208;9.038;2022-08-25T16:18:30;5.67;;;3.60;;
3070;SDS011;1546;47.208;9.038;2022-08-25T16:21:18;4.80;;;3.40;;
3070;SDS011;1546;47.208;9.038;2022-08-25T16:24:06;5.13;;;3.57;;
3070;SDS011;1546;47.208;9.038;2022-08-25T16:26:52;4.70;;;3.20;;
3070;SDS011;1546;47.208;9.038;2022-08-25T16:29:42;6.40;;;3.60;;
3070;SDS011;1546;47.208;9.038;2022-08-25T16:32:28;5.40;;;3.13;;
3070;SDS011;1546;47.208;9.038;2022-08-25T16:35:14;5.07;;;3.70;;
3070;SDS011;1546;47.208;9.038;2022-08-25T16:38:01;5.77;;;3.60;;
3070;SDS011;1546;47.208;9.038;2022-08-25T16:40:48;4.47;;;3.33;;
3070;SDS011;1546;47.208;9.038;2022-08-25T16:43:34;5.30;;;3.90;;
3070;SDS011;1546;47.208;9.038;2022-08-25T16:46:20;5.67;;;3.40;;
3070;SDS011;1546;47.208;9.038;2022-08-25T16:49:05;6.50;;;4.10;;
3070;SDS011;1546;47.208;9.038;2022-08-25T16:51:51;5.30;;;3.70;;
3070;SDS011;1546;47.208;9.038;2022-08-25T16:54:38;6.47;;;4.43;;
3070;SDS011;1546;47.208;9.038;2022-08-25T16:57:42;4.80;;;3.77;;
3070;SDS011;1546;47.208;9.038;2022-08-25T17:00:29;4.87;;;3.50;;
3070;SDS011;1546;47.208;9.038;2022-08-25T17:03:16;6.03;;;3.27;;
3070;SDS011;1546;47.208;9.038;2022-08-25T17:06:01;4.00;;;3.07;;
3070;SDS011;1546;47.208;9.038;2022-08-25T17:08:47;5.10;;;3.70;;
3070;SDS011;1546;47.208;9.038;2022-08-25T17:11:36;8.20;;;4.10;;
3070;SDS011;1546;47.208;9.038;2022-08-25T17:14:27;5.90;;;3.67;;
3070;SDS011;1546;47.208;9.038;2022-08-25T17:17:13;5.60;;;3.40;;
3070;SDS011;1546;47.208;9.038;2022-08-25T17:19:59;6.90;;;3.40;;
3070;SDS011;1546;47.208;9.038;2022-08-25T17:22:44;5.33;;;3.50;;
3070;SDS011;1546;47.208;9.038;2022-08-25T17:25:32;6.97;;;4.10;;
3070;SDS011;1546;47.208;9.038;2022-08-25T17:28:19;5.50;;;3.57;;
3070;SDS011;1546;47.208;9.038;2022-08-25T17:31:05;6.23;;;3.97;;
3070;SDS011;1546;47.208;9.038;2022-08-25T17:33:51;5.50;;;3.83;;
3070;SDS011;1546;47.208;9.038;2022-08-25T17:36:37;6.10;;;4.00;;